Time;durP1;ratioP1;P1;durP2;ratioP2;P2;SDS_P1;SDS_P2;PMS_P1;PMS_P2;Temp;Humidity;BMP_temperature;BMP_pressure;BME280_temperature;BME280_humidity;BME280_pressure;Samples;Min_cycle;Max_cycle;Signal;HPM_P1;HPM_P2
2022/01/17 00:00:27;;;;;;;18.52;3.15;;;;;;;;;;4986876;28;96924;-75
2022/01/17 00:02:53;;;;;;;14.90;2.92;;;;;;;;;;4977657;28;97471;-77
2022/01/17 00:05:21;;;;;;;17.35;2.90;;;;;;;;;;4977794;28;96830;-76
2022/01/17 00:07:52;;;;;;;;;;;;;;;;;;4976118;28;96319;-76
2022/01/17 00:10:20;;;;;;;20.08;2.75;;;;;;;;;;4978746;28;119007;-76
2022/01/17 00:12:50;;;;;;;22.45;3.20;;;;;;;;;;4984464;28;96951;-77
2022/01/17 00:15:23;;;;;;;14.50;2.60;;;;;;;;;;4979501;28;97300;-77
2022/01/17 00:17:57;;;;;;;25.13;3.80;;;;;;;;;;4991794;28;95109;-76
2022/01/17 00:20:28;;;;;;;24.98;3.45;;;;;;;;;;4991652;28;96224;-76
2022/01/17 00:22:59;;;;;;;22.67;3.08;;;;;;;;;;4968206;28;96575;-76
2022/01/17 00:25:25;;;;;;;21.75;3.05;;;;;;;;;;4968787;28;95197;-76
2022/01/17 00:27:51;;;;;;;19.08;3.65;;;;;;;;;;4973739;28;97099;-75
2022/01/17 00:30:18;;;;;;;15.27;2.53;;;;;;;;;;4991630;28;97087;-76
2022/01/17 00:32:45;;;;;;;16.23;2.85;;;;;;;;;;4993797;28;96707;-77
2022/01/17 00:35:11;;;;;;;18.02;2.97;;;;;;;;;;4979847;28;97450;-77
2022/01/17 00:37:38;;;;;;;22.95;3.28;;;;;;;;;;4990536;28;95398;-76
2022/01/17 00:40:05;;;;;;;15.20;2.70;;;;;;;;;;4977793;28;96807;-76
2022/01/17 00:42:31;;;;;;;15.18;2.50;;;;;;;;;;4989663;28;97292;-77
2022/01/17 00:45:01;;;;;;;23.13;2.85;;;;;;;;;;4965517;28;95632;-76
2022/01/17 00:47:27;;;;;;;18.25;3.15;;;;;;;;;;4988602;28;96788;-76
2022/01/17 00:49:53;;;;;;;18.73;2.63;;;;;;;;;;4976956;28;97270;-77
2022/01/17 00:52:20;;;;;;;13.23;2.20;;;;;;;;;;4994496;28;95330;-78
2022/01/17 00:54:47;;;;;;;17.83;2.40;;;;;;;;;;4981765;28;97362;-77
2022/01/17 00:57:13;;;;;;;22.52;2.63;;;;;;;;;;4980394;28;96369;-75
2022/01/17 00:59:39;;;;;;;15.13;3.10;;;;;;;;;;4973944;28;96911;-77
2022/01/17 01:02:06;;;;;;;22.45;2.88;;;;;;;;;;4973110;28;97334;-76
2022/01/17 01:04:32;;;;;;;16.83;2.17;;;;;;;;;;4971908;28;95345;-77
2022/01/17 01:06:59;;;;;;;14.27;2.65;;;;;;;;;;4973685;28;97123;-77
2022/01/17 01:09:29;;;;;;;20.48;2.55;;;;;;;;;;4975724;28;97275;-77
2022/01/17 01:11:55;;;;;;;17.50;2.50;;;;;;;;;;4995045;28;95227;-77
2022/01/17 01:14:22;;;;;;;21.85;2.83;;;;;;;;;;4972550;28;97314;-75
2022/01/17 01:16:51;;;;;;;17.90;2.30;;;;;;;;;;4967599;28;95327;-77
2022/01/17 01:29:47;;;;;;;18.50;2.35;;;;;;;;;;4992699;28;97608;-77
2022/01/17 01:32:17;;;;;;;14.05;2.92;;;;;;;;;;4989423;28;96109;-77
2022/01/17 01:34:49;;;;;;;15.68;2.13;;;;;;;;;;4971397;28;98893;-77
2022/01/17 01:37:15;;;;;;;17.05;2.83;;;;;;;;;;4970899;28;95247;-76
2022/01/17 01:39:41;;;;;;;21.60;3.25;;;;;;;;;;4975768;28;96776;-77
2022/01/17 01:42:15;;;;;;;15.75;2.30;;;;;;;;;;4980516;28;97391;-77
2022/01/17 01:44:42;;;;;;;16.33;2.58;;;;;;;;;;4983011;28;95395;-77
2022/01/17 01:47:09;;;;;;;18.65;2.47;;;;;;;;;;4992806;28;97421;-76
2022/01/17 01:49:35;;;;;;;22.38;2.80;;;;;;;;;;4973498;28;97203;-76
2022/01/17 01:52:02;;;;;;;15.93;2.50;;;;;;;;;;4971397;28;95210;-76
2022/01/17 01:54:29;;;;;;;16.85;2.85;;;;;;;;;;4970644;28;96912;-76
2022/01/17 01:57:03;;;;;;;21.90;2.67;;;;;;;;;;4976964;28;97662;-76
2022/01/17 01:59:32;;;;;;;19.48;2.47;;;;;;;;;;4985422;28;96814;-77
2022/01/17 02:02:00;;;;;;;22.80;2.63;;;;;;;;;;4989859;28;96747;-76
2022/01/17 02:04:27;;;;;;;14.25;2.13;;;;;;;;;;4991685;28;95213;-76
2022/01/17 02:06:53;;;;;;;21.90;2.35;;;;;;;;;;4992088;28;97697;-75
2022/01/17 02:09:23;;;;;;;24.27;3.05;;;;;;;;;;4989411;28;96177;-75
2022/01/17 02:11:50;;;;;;;14.10;2.42;;;;;;;;;;4971973;28;95328;-76
2022/01/17 02:14:16;;;;;;;19.55;3.67;;;;;;;;;;4970496;28;96849;-77
2022/01/17 02:16:44;;;;;;;14.18;2.53;;;;;;;;;;4972425;28;97106;-76
2022/01/17 02:19:11;;;;;;;19.13;2.70;;;;;;;;;;4975841;28;95606;-76
2022/01/17 02:21:46;;;;;;;15.77;2.22;;;;;;;;;;4962180;28;97400;-76
2022/01/17 02:24:20;;;;;;;20.65;2.63;;;;;;;;;;4969294;28;95258;-75
2022/01/17 02:26:47;;;;;;;20.60;2.40;;;;;;;;;;4976109;28;98756;-77
2022/01/17 02:29:14;;;;;;;22.05;2.58;;;;;;;;;;4986983;28;97339;-75
2022/01/17 02:31:43;;;;;;;23.02;2.47;;;;;;;;;;4974738;28;95152;-76
2022/01/17 02:34:10;;;;;;;16.08;3.00;;;;;;;;;;4971403;28;96806;-76
2022/01/17 02:36:36;;;;;;;13.25;2.08;;;;;;;;;;4971721;28;96444;-76
2022/01/17 02:39:03;;;;;;;22.52;4.25;;;;;;;;;;4972671;28;95443;-76
2022/01/17 02:41:31;;;;;;;20.85;2.45;;;;;;;;;;4974592;28;97111;-77
2022/01/17 02:44:00;;;;;;;17.30;2.15;;;;;;;;;;4970979;28;96208;-76
2022/01/17 02:46:27;;;;;;;13.60;2.40;;;;;;;;;;4971496;28;96786;-75
2022/01/17 02:48:55;;;;;;;15.20;2.30;;;;;;;;;;4971979;28;95074;-75
2022/01/17 02:51:22;;;;;;;19.00;2.33;;;;;;;;;;4971463;28;95330;-76
2022/01/17 02:53:49;;;;;;;20.30;2.40;;;;;;;;;;4971961;28;96796;-75
2022/01/17 02:56:15;;;;;;;18.15;2.55;;;;;;;;;;4972899;28;97305;-76
2022/01/17 02:58:42;;;;;;;19.63;2.60;;;;;;;;;;4990728;28;95394;-76
2022/01/17 03:01:29;;;;;;;13.50;1.83;;;;;;;;;;4982826;28;96759;-74
2022/01/17 03:03:57;;;;;;;22.17;2.45;;;;;;;;;;4983807;28;97663;-75
2022/01/17 03:06:24;;;;;;;12.95;2.78;;;;;;;;;;4992461;28;96881;-74
2022/01/17 03:08:51;;;;;;;13.40;2.33;;;;;;;;;;4974587;28;97340;-74
2022/01/17 03:11:22;;;;;;;13.63;2.08;;;;;;;;;;4979056;28;95332;-74
2022/01/17 03:13:50;;;;;;;16.20;2.70;;;;;;;;;;4981487;28;96804;-75
2022/01/17 03:16:17;;;;;;;21.05;3.47;;;;;;;;;;4987604;28;97318;-75
2022/01/17 03:18:45;;;;;;;12.95;2.00;;;;;;;;;;4990636;28;95304;-75
2022/01/17 03:21:14;;;;;;;21.88;3.30;;;;;;;;;;4983284;28;96793;-76
2022/01/17 03:23:41;;;;;;;19.17;3.53;;;;;;;;;;4984340;28;97593;-75
2022/01/17 03:26:07;;;;;;;17.75;2.80;;;;;;;;;;4974668;28;96846;-76
2022/01/17 03:28:34;;;;;;;20.88;2.40;;;;;;;;;;4975101;28;97367;-75
2022/01/17 03:31:01;;;;;;;18.90;2.50;;;;;;;;;;4974678;28;95346;-76
2022/01/17 03:33:27;;;;;;;20.00;2.30;;;;;;;;;;4973565;28;97148;-76
2022/01/17 03:35:54;;;;;;;19.38;2.53;;;;;;;;;;4974165;28;97491;-76
2022/01/17 03:38:21;;;;;;;19.40;2.08;;;;;;;;;;4972103;28;96182;-75
2022/01/17 03:40:50;;;;;;;19.58;2.97;;;;;;;;;;4974107;28;96861;-77
2022/01/17 03:43:16;;;;;;;20.15;2.47;;;;;;;;;;4973279;28;97556;-76
2022/01/17 03:45:45;;;;;;;23.60;2.97;;;;;;;;;;4977329;28;95347;-74
2022/01/17 03:48:11;;;;;;;17.70;2.60;;;;;;;;;;4972687;28;96270;-75
2022/01/17 03:50:38;;;;;;;20.42;2.70;;;;;;;;;;4971698;28;95343;-76
2022/01/17 03:53:04;;;;;;;15.73;1.80;;;;;;;;;;4973238;28;96779;-79
2022/01/17 03:55:33;;;;;;;23.60;2.88;;;;;;;;;;4973177;28;96170;-75
2022/01/17 03:58:07;;;;;;;19.80;2.28;;;;;;;;;;4973823;28;96094;-75
2022/01/17 04:00:36;;;;;;;20.10;2.72;;;;;;;;;;4960592;28;97834;-75
2022/01/17 04:03:03;;;;;;;15.98;2.40;;;;;;;;;;4954329;28;97112;-76
2022/01/17 04:05:30;;;;;;;15.88;2.70;;;;;;;;;;4956704;28;95357;-76
2022/01/17 04:07:56;;;;;;;16.60;2.55;;;;;;;;;;4976043;28;96925;-74
2022/01/17 04:10:23;;;;;;;14.60;2.17;;;;;;;;;;4973011;28;95476;-74
2022/01/17 04:12:49;;;;;;;19.58;2.42;;;;;;;;;;4961612;28;97133;-74
2022/01/17 04:15:16;;;;;;;19.23;2.72;;;;;;;;;;4963720;28;97383;-74
2022/01/17 04:17:43;;;;;;;20.92;2.90;;;;;;;;;;4963464;28;95236;-76
2022/01/17 04:20:13;;;;;;;14.85;2.25;;;;;;;;;;4961427;28;97102;-76
2022/01/17 04:22:50;;;;;;;12.65;1.98;;;;;;;;;;4963793;28;97492;-75
2022/01/17 04:25:16;;;;;;;22.38;2.97;;;;;;;;;;4962263;28;95354;-76
2022/01/17 04:27:42;;;;;;;22.30;2.25;;;;;;;;;;4967492;28;96846;-76
2022/01/17 04:30:09;;;;;;;14.18;2.25;;;;;;;;;;4975150;28;97204;-74
2022/01/17 04:32:35;;;;;;;16.73;2.20;;;;;;;;;;4957152;28;96866;-76
2022/01/17 04:35:02;;;;;;;22.92;4.10;;;;;;;;;;4956879;28;97675;-75
2022/01/17 04:37:28;;;;;;;18.17;2.30;;;;;;;;;;4966433;28;95385;-76
2022/01/17 04:39:55;;;;;;;15.27;2.35;;;;;;;;;;4953715;28;97040;-76
2022/01/17 04:42:27;;;;;;;16.13;2.40;;;;;;;;;;4956381;28;97079;-75
2022/01/17 04:45:07;;;;;;;19.67;2.85;;;;;;;;;;4973158;28;95181;-75
2022/01/17 04:47:36;;;;;;;18.75;2.75;;;;;;;;;;4971997;28;96891;-75
2022/01/17 04:50:04;;;;;;;18.42;2.70;;;;;;;;;;4973316;28;97353;-76
2022/01/17 04:52:30;;;;;;;14.13;2.83;;;;;;;;;;4975643;28;95402;-75
2022/01/17 04:55:01;;;;;;;21.02;2.55;;;;;;;;;;4972338;28;97327;-75
2022/01/17 04:57:27;;;;;;;22.63;3.10;;;;;;;;;;4965577;28;95183;-76
2022/01/17 04:59:53;;;;;;;22.30;3.05;;;;;;;;;;4973288;28;96586;-75
2022/01/17 05:02:20;;;;;;;16.17;2.70;;;;;;;;;;4970555;28;97409;-74
2022/01/17 05:04:48;;;;;;;19.90;3.35;;;;;;;;;;4972850;28;95209;-75
2022/01/17 05:07:14;;;;;;;26.85;3.42;;;;;;;;;;4972118;28;96798;-75
2022/01/17 05:09:42;;;;;;;16.42;3.20;;;;;;;;;;4971944;28;97427;-75
2022/01/17 05:12:10;;;;;;;22.27;3.50;;;;;;;;;;4972558;28;95224;-75
2022/01/17 05:14:40;;;;;;;24.80;3.65;;;;;;;;;;4974238;28;97185;-75
2022/01/17 05:17:23;;;;;;;21.67;3.85;;;;;;;;;;4953486;28;95341;-75
2022/01/17 05:19:54;;;;;;;22.88;3.35;;;;;;;;;;4952835;28;97053;-76
2022/01/17 05:22:21;;;;;;;14.70;2.95;;;;;;;;;;4966630;28;96751;-76
2022/01/17 05:24:48;;;;;;;20.13;3.17;;;;;;;;;;4957866;28;95210;-76
2022/01/17 05:27:15;;;;;;;25.77;3.45;;;;;;;;;;4963876;28;96570;-76
2022/01/17 05:29:41;;;;;;;17.02;3.50;;;;;;;;;;4968086;28;97404;-76
2022/01/17 05:32:10;;;;;;;22.92;4.20;;;;;;;;;;4971883;28;95150;-76
2022/01/17 05:34:40;;;;;;;18.38;4.03;;;;;;;;;;4974681;28;96925;-75
2022/01/17 05:37:07;;;;;;;26.70;4.22;;;;;;;;;;4969379;28;95320;-77
2022/01/17 05:39:34;;;;;;;22.80;4.55;;;;;;;;;;4968867;28;96945;-75
2022/01/17 05:42:00;;;;;;;28.23;4.35;;;;;;;;;;4971697;28;97230;-77
2022/01/17 05:44:27;;;;;;;15.60;4.25;;;;;;;;;;4971017;28;95560;-77
2022/01/17 05:46:53;;;;;;;23.73;4.82;;;;;;;;;;4972350;28;96744;-77
2022/01/17 05:49:19;;;;;;;20.48;5.00;;;;;;;;;;4966416;28;97304;-74
2022/01/17 05:51:46;;;;;;;20.73;5.35;;;;;;;;;;4971194;28;95736;-74
2022/01/17 05:54:12;;;;;;;27.00;5.40;;;;;;;;;;4970201;28;97096;-74
2022/01/17 05:56:38;;;;;;;20.85;5.88;;;;;;;;;;4974843;28;97583;-76
2022/01/17 05:59:05;;;;;;;23.50;5.70;;;;;;;;;;4971629;28;97166;-77
2022/01/17 06:01:31;;;;;;;27.15;6.03;;;;;;;;;;4971259;28;97590;-74
2022/01/17 06:03:58;;;;;;;22.50;6.22;;;;;;;;;;4971346;28;96047;-76
2022/01/17 06:06:28;;;;;;;29.65;6.43;;;;;;;;;;4976093;28;96741;-74
2022/01/17 06:08:56;;;;;;;23.75;5.68;;;;;;;;;;4953707;28;97311;-74
2022/01/17 06:11:22;;;;;;;29.08;6.60;;;;;;;;;;4970853;28;95283;-75
2022/01/17 06:13:49;;;;;;;35.80;7.10;;;;;;;;;;4971729;28;96771;-76
2022/01/17 06:16:15;;;;;;;25.80;6.70;;;;;;;;;;4968242;28;97207;-76
2022/01/17 06:18:42;;;;;;;29.80;7.65;;;;;;;;;;4974473;28;95269;-76
2022/01/17 06:21:11;;;;;;;28.75;7.88;;;;;;;;;;4970705;28;97400;-77
2022/01/17 06:23:37;;;;;;;22.90;7.05;;;;;;;;;;4970307;28;95111;-77
2022/01/17 06:26:04;;;;;;;37.50;8.18;;;;;;;;;;4970623;28;96849;-76
2022/01/17 06:28:30;;;;;;;32.72;8.88;;;;;;;;;;4970798;28;97274;-75
2022/01/17 06:30:56;;;;;;;35.50;8.60;;;;;;;;;;4974212;28;95071;-75
2022/01/17 06:33:23;;;;;;;34.50;9.43;;;;;;;;;;4974536;28;96896;-76
2022/01/17 06:35:50;;;;;;;28.33;9.07;;;;;;;;;;4973459;28;97276;-75
2022/01/17 06:38:17;;;;;;;38.05;10.85;;;;;;;;;;4975005;28;95400;-76
2022/01/17 06:40:43;;;;;;;35.10;9.88;;;;;;;;;;4989361;28;96954;-77
2022/01/17 06:43:10;;;;;;;31.25;9.82;;;;;;;;;;4979135;28;95306;-76
2022/01/17 06:45:38;;;;;;;30.15;9.88;;;;;;;;;;4955090;28;96790;-77
2022/01/17 06:48:06;;;;;;;37.25;11.93;;;;;;;;;;4954861;28;97390;-76
2022/01/17 06:50:32;;;;;;;39.60;12.20;;;;;;;;;;4976189;28;95344;-76
2022/01/17 06:52:59;;;;;;;47.65;13.18;;;;;;;;;;4985992;28;97026;-76
2022/01/17 06:55:25;;;;;;;39.05;11.90;;;;;;;;;;4973237;28;97188;-77
2022/01/17 06:57:51;;;;;;;37.53;12.73;;;;;;;;;;4974734;28;95315;-76
2022/01/17 07:00:18;;;;;;;34.63;12.23;;;;;;;;;;4974736;28;96842;-76
2022/01/17 07:02:49;;;;;;;46.73;13.50;;;;;;;;;;5006772;28;96814;-76
2022/01/17 07:05:16;;;;;;;53.97;13.90;;;;;;;;;;4972097;28;97174;-76
2022/01/17 07:07:42;;;;;;;39.35;14.07;;;;;;;;;;4973077;28;97234;-77
2022/01/17 07:10:08;;;;;;;36.50;13.63;;;;;;;;;;4973583;28;95425;-76
2022/01/17 07:12:38;;;;;;;45.58;15.05;;;;;;;;;;4968283;28;97186;-77
2022/01/17 07:15:05;;;;;;;42.15;14.68;;;;;;;;;;4973374;28;96268;-76
2022/01/17 07:17:31;;;;;;;39.80;14.68;;;;;;;;;;4971224;28;96468;-76
2022/01/17 07:19:58;;;;;;;46.22;15.85;;;;;;;;;;4974109;28;96798;-75
2022/01/17 07:22:24;;;;;;;45.25;16.08;;;;;;;;;;4972814;28;97541;-76
2022/01/17 07:24:50;;;;;;;51.05;17.30;;;;;;;;;;4978154;28;95238;-76
2022/01/17 07:27:17;;;;;;;54.00;17.05;;;;;;;;;;4981181;28;97494;-77
2022/01/17 07:29:44;;;;;;;40.95;16.10;;;;;;;;;;4972898;28;95919;-77
2022/01/17 07:32:10;;;;;;;37.50;15.27;;;;;;;;;;4971876;28;96752;-77
2022/01/17 07:34:37;;;;;;;45.95;15.55;;;;;;;;;;4972153;28;97452;-77
2022/01/17 07:37:04;;;;;;;49.92;16.15;;;;;;;;;;4973012;28;95609;-76
2022/01/17 07:39:30;;;;;;;51.67;17.58;;;;;;;;;;4973039;28;96926;-77
2022/01/17 07:41:56;;;;;;;51.17;16.58;;;;;;;;;;4972938;28;97363;-76
2022/01/17 07:44:25;;;;;;;46.53;16.05;;;;;;;;;;4975714;28;95785;-77
2022/01/17 07:46:56;;;;;;;39.55;15.10;;;;;;;;;;4971778;28;97409;-77
2022/01/17 07:49:24;;;;;;;38.50;14.32;;;;;;;;;;4957931;28;97136;-77
2022/01/17 07:51:58;;;;;;;39.08;15.00;;;;;;;;;;4973420;28;96856;-77
2022/01/17 07:54:29;;;;;;;41.53;14.05;;;;;;;;;;4972869;28;97519;-77
2022/01/17 07:56:56;;;;;;;37.92;13.88;;;;;;;;;;4987309;28;95363;-77
2022/01/17 07:59:22;;;;;;;36.33;14.60;;;;;;;;;;4987792;28;96816;-77
2022/01/17 08:01:49;;;;;;;40.08;13.63;;;;;;;;;;4972407;28;97482;-77
2022/01/17 08:04:16;;;;;;;40.00;13.40;;;;;;;;;;4971398;28;95196;-77
2022/01/17 08:06:42;;;;;;;33.88;13.50;;;;;;;;;;4988247;28;96776;-78
2022/01/17 08:09:11;;;;;;;39.17;13.38;;;;;;;;;;4993146;28;95291;-77
2022/01/17 08:11:57;;;;;;;38.38;12.48;;;;;;;;;;4970803;28;98532;-76
2022/01/17 08:14:24;;;;;;;34.60;12.45;;;;;;;;;;4976687;28;98325;-77
2022/01/17 08:16:51;;;;;;;29.70;10.77;;;;;;;;;;4962663;28;95683;-80
2022/01/17 08:19:18;;;;;;;35.50;10.23;;;;;;;;;;4971206;28;97016;-77
2022/01/17 08:21:47;;;;;;;36.65;10.18;;;;;;;;;;4972585;28;97598;-80
2022/01/17 08:24:13;;;;;;;29.17;9.35;;;;;;;;;;4971318;28;95342;-78
2022/01/17 08:26:42;;;;;;;29.67;8.95;;;;;;;;;;4968221;28;96814;-77
2022/01/17 08:29:09;;;;;;;28.35;8.60;;;;;;;;;;4966347;28;97418;-77
2022/01/17 08:31:36;;;;;;;39.53;9.40;;;;;;;;;;4962025;28;96771;-77
2022/01/17 08:34:02;;;;;;;28.63;8.48;;;;;;;;;;4970215;28;97319;-77
2022/01/17 08:36:30;;;;;;;30.75;8.00;;;;;;;;;;4972394;28;96292;-75
2022/01/17 08:38:57;;;;;;;45.08;7.63;;;;;;;;;;4972695;28;96862;-78
2022/01/17 08:41:23;;;;;;;24.70;6.95;;;;;;;;;;4956996;28;97399;-76
2022/01/17 08:43:49;;;;;;;30.70;7.22;;;;;;;;;;4964126;28;95088;-77
2022/01/17 08:46:16;;;;;;;31.50;6.80;;;;;;;;;;4951170;28;97159;-77
2022/01/17 08:48:42;;;;;;;28.23;7.55;;;;;;;;;;4969382;28;97326;-77
2022/01/17 08:51:09;;;;;;;23.25;6.05;;;;;;;;;;4975933;28;95797;-75
2022/01/17 08:53:35;;;;;;;30.48;6.70;;;;;;;;;;4972107;28;97084;-76
2022/01/17 08:56:02;;;;;;;30.13;6.55;;;;;;;;;;4968598;28;95355;-75
2022/01/17 08:58:28;;;;;;;29.70;6.45;;;;;;;;;;4971972;28;96791;-76
2022/01/17 09:00:56;;;;;;;29.27;6.47;;;;;;;;;;4973071;28;97778;-74
2022/01/17 09:03:23;;;;;;;30.17;6.45;;;;;;;;;;4980887;28;95332;-76
2022/01/17 09:05:51;;;;;;;29.85;5.25;;;;;;;;;;4972147;28;96775;-77
2022/01/17 09:08:18;;;;;;;33.95;6.15;;;;;;;;;;4971399;28;97620;-75
2022/01/17 09:10:45;;;;;;;29.58;5.80;;;;;;;;;;4972106;28;95120;-76
2022/01/17 09:13:11;;;;;;;26.73;5.72;;;;;;;;;;4973455;28;97073;-75
2022/01/17 09:15:38;;;;;;;21.08;5.00;;;;;;;;;;4969813;28;95805;-76
2022/01/17 09:18:05;;;;;;;26.90;5.03;;;;;;;;;;4971507;28;97469;-77
2022/01/17 09:20:34;;;;;;;34.30;5.55;;;;;;;;;;4975516;28;97845;-77
2022/01/17 09:23:02;;;;;;;38.78;4.88;;;;;;;;;;4972790;28;96704;-75
2022/01/17 09:25:29;;;;;;;39.88;5.15;;;;;;;;;;4974288;28;96119;-75
2022/01/17 09:27:55;;;;;;;34.95;6.72;;;;;;;;;;4964923;28;97789;-75
2022/01/17 09:30:21;;;;;;;30.90;5.90;;;;;;;;;;4968650;28;95099;-77
2022/01/17 09:32:48;;;;;;;30.45;5.43;;;;;;;;;;4984494;28;95630;-75
2022/01/17 09:35:15;;;;;;;35.42;6.30;;;;;;;;;;4988948;28;95845;-76
2022/01/17 09:37:41;;;;;;;34.58;5.95;;;;;;;;;;4985822;28;96884;-75
2022/01/17 09:40:08;;;;;;;26.05;4.63;;;;;;;;;;4991977;28;97683;-77
2022/01/17 09:42:37;;;;;;;28.08;4.47;;;;;;;;;;4979930;28;95238;-77
2022/01/17 09:45:05;;;;;;;39.55;5.03;;;;;;;;;;4971947;28;96661;-77
2022/01/17 09:47:33;;;;;;;32.72;5.22;;;;;;;;;;4971245;28;97359;-77
2022/01/17 09:50:01;;;;;;;34.55;4.60;;;;;;;;;;4972001;28;95383;-78
2022/01/17 09:52:34;;;;;;;24.48;4.43;;;;;;;;;;4983566;28;96632;-78
2022/01/17 09:55:21;;;;;;;31.52;5.95;;;;;;;;;;4989190;28;97100;-75
2022/01/17 09:57:52;;;;;;;31.95;4.93;;;;;;;;;;4951926;28;96962;-78
2022/01/17 10:00:20;;;;;;;35.63;5.07;;;;;;;;;;4951852;28;97359;-78
2022/01/17 10:02:47;;;;;;;26.73;5.45;;;;;;;;;;4967996;28;95375;-77
2022/01/17 10:05:14;;;;;;;39.95;5.72;;;;;;;;;;4969678;28;97329;-78
2022/01/17 10:08:00;;;;;;;23.20;4.30;;;;;;;;;;4951911;28;97226;-77
2022/01/17 10:10:50;;;;;;;28.52;4.32;;;;;;;;;;4968760;28;95259;-78
2022/01/17 10:13:23;;;;;;;23.45;4.18;;;;;;;;;;4982917;28;96868;-77
2022/01/17 10:16:09;;;;;;;25.10;4.88;;;;;;;;;;4972157;28;97043;-76
2022/01/17 10:18:39;;;;;;;28.67;4.97;;;;;;;;;;4954745;28;95338;-78
2022/01/17 10:21:17;;;;;;;29.88;6.78;;;;;;;;;;4956413;28;97324;-78
2022/01/17 10:24:14;;;;;;;28.75;4.68;;;;;;;;;;4987401;28;95223;-75
2022/01/17 10:37:23;;;;;;;30.92;4.60;;;;;;;;;;4965871;28;98031;-77
2022/01/17 10:39:55;;;;;;;21.67;4.15;;;;;;;;;;4969912;28;96402;-78
2022/01/17 10:42:21;;;;;;;;;;;;;;;;;;4972357;28;96928;-77
2022/01/17 10:44:48;;;;;;;26.77;4.32;;;;;;;;;;4969471;28;116448;-75
2022/01/17 10:47:36;;;;;;;25.00;3.75;;;;;;;;;;4968659;28;96887;-77
2022/01/17 10:50:05;;;;;;;21.67;3.85;;;;;;;;;;4968031;28;97956;-78
2022/01/17 10:52:31;;;;;;;39.47;6.40;;;;;;;;;;4965590;28;95654;-77
2022/01/17 10:54:58;;;;;;;32.10;4.85;;;;;;;;;;4960627;28;95781;-77
2022/01/17 10:57:25;;;;;;;33.83;5.05;;;;;;;;;;4968220;28;97303;-75
2022/01/17 10:59:52;;;;;;;30.10;4.47;;;;;;;;;;4982485;28;95379;-75
2022/01/17 11:02:23;;;;;;;25.20;4.20;;;;;;;;;;4969957;28;97423;-75
2022/01/17 11:04:50;;;;;;;31.00;4.15;;;;;;;;;;4974201;28;97239;-75
2022/01/17 11:07:16;;;;;;;27.75;4.30;;;;;;;;;;4969023;28;96270;-76
2022/01/17 11:09:47;;;;;;;25.75;3.60;;;;;;;;;;4973419;28;97456;-76
2022/01/17 11:12:15;;;;;;;25.13;3.80;;;;;;;;;;4977872;28;96263;-77
2022/01/17 11:14:43;;;;;;;21.45;3.70;;;;;;;;;;4977899;28;96745;-76
2022/01/17 11:17:20;;;;;;;24.45;3.80;;;;;;;;;;4984163;28;97441;-74
2022/01/17 11:20:03;;;;;;;22.02;3.95;;;;;;;;;;4981415;28;95695;-75
2022/01/17 11:22:30;;;;;;;23.42;4.18;;;;;;;;;;4973966;28;96784;-75
2022/01/17 11:24:57;;;;;;;27.02;3.70;;;;;;;;;;4982679;28;97292;-75
2022/01/17 11:27:24;;;;;;;29.70;4.88;;;;;;;;;;4966107;28;95667;-75
2022/01/17 11:29:50;;;;;;;24.88;3.83;;;;;;;;;;4974334;28;97546;-76
2022/01/17 11:32:17;;;;;;;26.40;3.92;;;;;;;;;;4978915;28;95618;-77
2022/01/17 11:34:43;;;;;;;33.60;4.18;;;;;;;;;;4976276;28;95580;-78
2022/01/17 11:37:11;;;;;;;27.80;3.80;;;;;;;;;;4978475;28;97297;-78
2022/01/17 11:40:03;;;;;;;24.35;4.30;;;;;;;;;;4969810;28;96036;-77
2022/01/17 11:42:30;;;;;;;;;;;;;;;;;;4965602;28;96962;-78
2022/01/17 11:44:56;;;;;;;29.88;3.63;;;;;;;;;;4982445;28;126719;-77
2022/01/17 11:47:41;;;;;;;21.02;3.42;;;;;;;;;;4976896;28;95098;-77
2022/01/17 11:50:26;;;;;;;23.38;3.78;;;;;;;;;;4977798;28;96784;-78
2022/01/17 11:52:56;;;;;;;24.65;3.90;;;;;;;;;;4984910;28;95182;-78
2022/01/17 11:55:46;;;;;;;27.85;3.65;;;;;;;;;;4977140;28;95674;-77
2022/01/17 11:58:19;;;;;;;30.75;4.35;;;;;;;;;;4975279;28;97014;-78
2022/01/17 12:00:46;;;;;;;33.55;4.30;;;;;;;;;;4971900;28;96002;-77
2022/01/17 12:03:20;;;;;;;27.83;3.95;;;;;;;;;;4986075;28;96812;-78
2022/01/17 12:05:47;;;;;;;31.33;4.32;;;;;;;;;;4978028;28;96623;-78
2022/01/17 12:08:15;;;;;;;23.00;3.53;;;;;;;;;;4985035;28;95263;-79
2022/01/17 12:10:49;;;;;;;27.80;4.07;;;;;;;;;;4974734;28;97421;-76
2022/01/17 12:13:21;;;;;;;30.92;4.13;;;;;;;;;;4981281;28;95073;-76
2022/01/17 12:16:17;;;;;;;26.98;3.63;;;;;;;;;;4971909;28;96821;-76
2022/01/17 12:18:43;;;;;;;26.55;3.92;;;;;;;;;;4977739;28;97252;-77
2022/01/17 12:21:20;;;;;;;29.92;4.35;;;;;;;;;;4972110;28;95243;-77
2022/01/17 12:23:47;;;;;;;27.17;5.25;;;;;;;;;;4975003;28;96727;-77
2022/01/17 12:26:30;;;;;;;26.58;4.68;;;;;;;;;;4966151;28;97462;-74
2022/01/17 12:28:57;;;;;;;32.58;5.40;;;;;;;;;;4977154;28;95531;-77
2022/01/17 12:31:57;;;;;;;29.50;4.18;;;;;;;;;;4970672;28;96786;-77
2022/01/17 12:34:25;;;;;;;29.50;4.53;;;;;;;;;;4977962;28;97473;-80
2022/01/17 12:37:00;;;;;;;26.85;4.35;;;;;;;;;;4981829;28;97030;-77
2022/01/17 12:39:27;;;;;;;26.92;4.43;;;;;;;;;;4985498;28;97380;-77
2022/01/17 12:41:59;;;;;;;29.52;4.68;;;;;;;;;;4988506;28;95325;-76
2022/01/17 12:44:26;;;;;;;26.17;4.20;;;;;;;;;;4989800;28;95854;-75
2022/01/17 12:46:54;;;;;;;26.90;4.78;;;;;;;;;;4980788;28;96305;-76
2022/01/17 12:49:21;;;;;;;30.08;3.90;;;;;;;;;;4971228;28;95336;-76
2022/01/17 12:51:49;;;;;;;27.55;4.55;;;;;;;;;;4974477;28;96856;-76
2022/01/17 12:54:17;;;;;;;33.15;4.05;;;;;;;;;;4988388;28;96247;-77
2022/01/17 12:56:44;;;;;;;30.90;4.45;;;;;;;;;;4982699;28;95332;-76
2022/01/17 12:59:11;;;;;;;28.77;4.10;;;;;;;;;;4979790;28;97269;-76
2022/01/17 13:01:48;;;;;;;29.40;3.63;;;;;;;;;;4969848;28;95482;-78
2022/01/17 13:04:17;;;;;;;24.10;4.00;;;;;;;;;;4979803;28;96802;-77
2022/01/17 13:06:45;;;;;;;26.42;4.13;;;;;;;;;;4979363;28;97587;-76
2022/01/17 13:09:13;;;;;;;27.27;4.10;;;;;;;;;;4971806;28;95339;-77
2022/01/17 13:11:40;;;;;;;28.80;3.97;;;;;;;;;;4976447;28;96897;-77
2022/01/17 13:14:07;;;;;;;30.70;3.78;;;;;;;;;;4989744;28;96305;-78
2022/01/17 13:16:34;;;;;;;25.88;4.13;;;;;;;;;;4986316;28;95303;-78
2022/01/17 13:19:03;;;;;;;26.85;4.28;;;;;;;;;;4977490;28;95667;-78
2022/01/17 13:21:30;;;;;;;27.17;4.28;;;;;;;;;;4989069;28;96338;-77
2022/01/17 13:24:12;;;;;;;34.08;4.53;;;;;;;;;;4981524;28;96828;-78
2022/01/17 13:26:40;;;;;;;27.40;3.97;;;;;;;;;;4970926;28;96477;-78
2022/01/17 13:29:09;;;;;;;32.08;4.22;;;;;;;;;;4971098;28;95354;-78
2022/01/17 13:31:36;;;;;;;26.35;3.60;;;;;;;;;;4971299;28;99206;-77
2022/01/17 13:34:16;;;;;;;35.03;4.25;;;;;;;;;;4973102;28;97416;-77
2022/01/17 13:36:44;;;;;;;24.58;4.35;;;;;;;;;;4951479;28;95738;-78
2022/01/17 13:39:10;;;;;;;36.40;4.72;;;;;;;;;;4962069;28;97266;-78
2022/01/17 13:41:38;;;;;;;26.85;4.30;;;;;;;;;;4973626;28;97548;-77
2022/01/17 13:44:05;;;;;;;34.22;4.90;;;;;;;;;;4972789;28;96839;-81
2022/01/17 13:46:32;;;;;;;34.92;4.57;;;;;;;;;;4958935;28;97302;-77
2022/01/17 13:48:59;;;;;;;35.05;4.45;;;;;;;;;;4960028;28;95434;-76
2022/01/17 13:51:27;;;;;;;38.03;5.53;;;;;;;;;;4971217;28;96610;-77
2022/01/17 13:53:54;;;;;;;30.58;4.20;;;;;;;;;;4980334;28;97322;-77
2022/01/17 13:56:21;;;;;;;41.60;4.80;;;;;;;;;;4970392;28;95399;-77
2022/01/17 13:58:54;;;;;;;29.92;4.32;;;;;;;;;;4971868;28;95864;-76
2022/01/17 14:01:20;;;;;;;36.20;4.88;;;;;;;;;;4970329;28;97450;-77
2022/01/17 14:03:47;;;;;;;33.00;4.47;;;;;;;;;;4970399;28;96961;-76
2022/01/17 14:06:15;;;;;;;28.00;3.78;;;;;;;;;;4955583;28;97371;-76
2022/01/17 14:08:43;;;;;;;40.97;4.88;;;;;;;;;;4969550;28;96198;-77
2022/01/17 14:11:12;;;;;;;32.47;4.28;;;;;;;;;;4970558;28;96705;-77
2022/01/17 14:13:41;;;;;;;28.00;4.35;;;;;;;;;;4974035;28;97382;-77
2022/01/17 14:16:37;;;;;;;27.13;4.40;;;;;;;;;;4970642;28;96512;-77
2022/01/17 14:19:03;;;;;;;34.47;4.80;;;;;;;;;;4967867;28;97054;-77
2022/01/17 14:21:45;;;;;;;31.88;4.65;;;;;;;;;;4963848;28;96233;-77
2022/01/17 14:24:14;;;;;;;29.15;4.53;;;;;;;;;;4972484;28;95221;-77
2022/01/17 14:26:58;;;;;;;24.50;3.70;;;;;;;;;;4980643;28;96356;-76
2022/01/17 14:29:25;;;;;;;27.35;4.05;;;;;;;;;;4990157;28;96380;-77
2022/01/17 14:31:53;;;;;;;41.85;5.30;;;;;;;;;;4974351;28;95384;-75
2022/01/17 14:34:22;;;;;;;34.42;4.45;;;;;;;;;;4974743;28;97419;-76
2022/01/17 14:37:09;;;;;;;39.90;5.30;;;;;;;;;;4971029;28;96505;-77
2022/01/17 14:39:45;;;;;;;29.35;4.38;;;;;;;;;;4983862;28;97204;-77
2022/01/17 14:42:15;;;;;;;34.53;4.72;;;;;;;;;;4973357;28;97367;-77
2022/01/17 14:44:47;;;;;;;38.15;5.65;;;;;;;;;;4976505;28;95210;-77
2022/01/17 14:47:17;;;;;;;35.55;4.72;;;;;;;;;;4967464;28;97153;-77
2022/01/17 14:49:48;;;;;;;42.33;5.95;;;;;;;;;;4981478;28;95336;-77
2022/01/17 14:52:19;;;;;;;39.28;6.38;;;;;;;;;;4971203;28;96766;-77
2022/01/17 14:54:55;;;;;;;32.50;5.38;;;;;;;;;;4991453;28;97506;-77
2022/01/17 15:00:23;;;;;;;29.40;4.28;;;;;;;;;;4973645;28;96726;-76
2022/01/17 15:02:55;;;;;;;44.60;5.55;;;;;;;;;;4973028;28;96568;-79